KSUE/SUE METAR and TAF weather

Enter ICAO airport designator
Station Type Date Time Source
KSUE METAR 2021/03/08 12:56 UTC NOAA

KSUE 081256Z AUTO 25010KT 10SM CLR 06/01 A3012 RMK AO2 SLP204 T00560006


Station Type Date Time Source
KSUE Decoded METAR 2021/03/08 12:56 UTC NOAA

Sturgeon Bay, WI, United States (KSUE) 44-51N 087-25W
Mar 08, 2021 - 07:56 AM EST / 2021.03.08 1256 UTC
Wind: from the WSW (250 degrees) at 12 MPH (10 KT):0
Visibility: 10 mile(s):0
Sky conditions: clear
Temperature: 42.1 F (5.6 C)
Dew Point: 33.1 F (0.6 C)
Relative Humidity: 70%
Pressure (altimeter): 30.12 in. Hg (1019 hPa)
ob: KSUE 081256Z AUTO 25010KT 10SM CLR 06/01 A3012 RMK AO2 SLP204 T00560006
cycle: 13

Station Type Date Time Source
KSUE TAF UTC NOAA

Error!

Example: see airport list